createdAt,value
2018-11-12T00:00:08.334Z,857.77
2018-11-12T00:01:08.488Z,857.77
2018-11-12T00:02:09.071Z,857.72
2018-11-12T00:03:08.318Z,857.76
2018-11-12T00:04:08.308Z,857.71
2018-11-12T00:05:08.291Z,857.71
2018-11-12T00:06:08.283Z,857.76
2018-11-12T00:07:09.339Z,857.72
2018-11-12T00:08:08.298Z,857.76
2018-11-12T00:09:08.240Z,857.72
2018-11-12T00:10:08.240Z,857.73
2018-11-12T00:11:08.213Z,857.70
2018-11-12T00:12:08.984Z,857.75
2018-11-12T00:13:08.235Z,857.74
2018-11-12T00:14:08.181Z,857.74
2018-11-12T00:15:08.362Z,857.75
2018-11-12T00:16:08.162Z,857.73
2018-11-12T00:17:08.172Z,857.77
2018-11-12T00:18:08.200Z,857.72
2018-11-12T00:19:08.369Z,857.73
2018-11-12T00:20:08.132Z,857.76
2018-11-12T00:21:08.114Z,857.77
2018-11-12T00:22:08.111Z,857.77
2018-11-12T00:23:08.138Z,857.73
2018-11-12T00:24:08.078Z,857.75
2018-11-12T00:25:08.083Z,857.74
2018-11-12T00:26:08.092Z,857.74
2018-11-12T00:27:08.041Z,857.74
2018-11-12T00:28:08.277Z,857.82
2018-11-12T00:29:08.047Z,857.82
2018-11-12T00:30:08.027Z,857.84
2018-11-12T00:31:08.005Z,857.75
2018-11-12T00:32:07.977Z,857.75
2018-11-12T00:33:08.011Z,857.72
2018-11-12T00:34:08.005Z,857.78
2018-11-12T00:35:07.978Z,857.79
2018-11-12T00:36:07.994Z,857.77
2018-11-12T00:37:07.929Z,857.82
2018-11-12T00:38:07.931Z,857.81
2018-11-12T00:39:07.916Z,857.81
2018-11-12T00:40:07.928Z,857.77
2018-11-12T00:41:07.933Z,857.71
2018-11-12T00:42:07.922Z,857.73
2018-11-12T00:43:07.893Z,857.73
2018-11-12T00:44:07.877Z,857.75
2018-11-12T00:45:07.877Z,857.82
2018-11-12T00:46:07.880Z,857.81
2018-11-12T00:47:07.873Z,857.80
2018-11-12T00:48:07.836Z,857.80
2018-11-12T00:49:07.831Z,857.78
2018-11-12T00:50:07.881Z,857.76
2018-11-12T00:51:07.820Z,857.80
2018-11-12T00:52:07.797Z,857.83
2018-11-12T00:53:07.768Z,857.85
2018-11-12T00:54:07.973Z,857.84
2018-11-12T00:55:07.794Z,857.82
2018-11-12T00:56:07.730Z,857.82
2018-11-12T00:57:07.888Z,857.84
2018-11-12T00:58:07.724Z,857.86
2018-11-12T00:59:07.707Z,857.85
2018-11-12T01:00:07.694Z,857.85
2018-11-12T01:01:07.797Z,857.86
2018-11-12T01:02:07.714Z,857.92
2018-11-12T01:03:07.678Z,857.89
2018-11-12T01:04:07.700Z,857.87
2018-11-12T01:05:07.640Z,857.89
2018-11-12T01:06:07.677Z,857.88
2018-11-12T01:07:07.768Z,857.96
2018-11-12T01:08:07.659Z,857.89
2018-11-12T01:09:07.587Z,857.94
2018-11-12T01:10:07.600Z,857.94
2018-11-12T01:11:07.578Z,857.94
2018-11-12T01:12:07.564Z,857.94
2018-11-12T01:13:07.585Z,857.97
2018-11-12T01:14:07.564Z,857.94
2018-11-12T01:15:07.553Z,857.97
2018-11-12T01:16:07.612Z,857.99
2018-11-12T01:17:07.509Z,857.99
2018-11-12T01:18:07.486Z,857.98
2018-11-12T01:19:08.463Z,858.01
2018-11-12T01:20:07.475Z,857.99
2018-11-12T01:21:07.462Z,857.97
2018-11-12T01:22:07.455Z,857.97
2018-11-12T01:23:07.445Z,858.04
2018-11-12T01:24:07.471Z,858.07
2018-11-12T01:25:07.563Z,858.02
2018-11-12T01:26:07.451Z,858.10
2018-11-12T01:27:07.576Z,858.10
2018-11-12T01:28:07.402Z,858.06
2018-11-12T01:29:07.401Z,858.09
2018-11-12T01:30:08.017Z,858.09
2018-11-12T01:31:07.359Z,858.06
2018-11-12T01:32:07.351Z,858.14
2018-11-12T01:33:07.353Z,858.12
2018-11-12T01:34:07.369Z,858.15
2018-11-12T01:35:07.313Z,858.18
2018-11-12T01:36:07.306Z,858.17
2018-11-12T01:37:07.337Z,858.14
2018-11-12T01:38:07.278Z,858.14
2018-11-12T01:39:07.270Z,858.06
2018-11-12T01:40:07.242Z,858.05
2018-11-12T01:41:07.247Z,858.01
2018-11-12T01:42:07.332Z,858.05
2018-11-12T01:43:07.224Z,858.10
2018-11-12T01:44:07.374Z,858.08
2018-11-12T01:45:07.196Z,858.12
2018-11-12T01:46:07.184Z,858.11
2018-11-12T01:47:07.227Z,858.09
2018-11-12T01:48:07.192Z,858.06
2018-11-12T01:49:07.153Z,858.07
2018-11-12T01:50:07.163Z,858.02
2018-11-12T01:51:07.150Z,858.04
2018-11-12T01:52:07.170Z,857.96
2018-11-12T01:53:07.125Z,857.91
2018-11-12T01:54:07.091Z,857.95
2018-11-12T01:55:07.115Z,858.01
2018-11-12T01:56:07.076Z,858.05
2018-11-12T01:57:07.102Z,858.08
2018-11-12T01:58:07.052Z,858.06
2018-11-12T01:59:07.056Z,858.03
2018-11-12T02:00:07.034Z,858.06
2018-11-12T02:01:07.042Z,858.01
2018-11-12T02:02:07.022Z,858.04
2018-11-12T02:03:07.062Z,858.05
2018-11-12T02:04:07.028Z,858.00
2018-11-12T02:05:07.049Z,857.97
2018-11-12T02:06:07.020Z,857.98
2018-11-12T02:07:07.010Z,858.03
2018-11-12T02:08:06.980Z,857.99
2018-11-12T02:09:07.034Z,857.99
2018-11-12T02:10:06.970Z,858.01
2018-11-12T02:11:06.934Z,857.98
2018-11-12T02:12:06.970Z,858.03
2018-11-12T02:13:06.958Z,857.98
2018-11-12T02:14:06.906Z,857.98
2018-11-12T02:15:06.892Z,857.99
2018-11-12T02:16:06.891Z,858.05
2018-11-12T02:17:06.923Z,858.00
2018-11-12T02:18:06.996Z,857.98
2018-11-12T02:19:06.855Z,857.94
2018-11-12T02:20:06.835Z,857.94
2018-11-12T02:21:06.825Z,857.94
2018-11-12T02:22:06.868Z,857.94
2018-11-12T02:23:06.821Z,857.95
2018-11-12T02:24:06.796Z,857.98
2018-11-12T02:25:06.787Z,857.98
2018-11-12T02:26:06.946Z,858.00
2018-11-12T02:27:06.790Z,858.02
2018-11-12T02:28:06.744Z,858.02
2018-11-12T02:29:06.731Z,858.02
2018-11-12T02:30:06.730Z,858.06
2018-11-12T02:31:06.708Z,858.03
2018-11-12T02:32:06.738Z,858.00
2018-11-12T02:33:06.960Z,858.03
2018-11-12T02:34:06.694Z,857.99
2018-11-12T02:35:06.667Z,858.00
2018-11-12T02:36:06.692Z,857.97
2018-11-12T02:37:06.651Z,858.01
2018-11-12T02:38:06.679Z,857.97
2018-11-12T02:39:06.632Z,857.95
2018-11-12T02:40:06.615Z,858.00
2018-11-12T02:41:06.596Z,858.04
2018-11-12T02:42:06.606Z,858.04
2018-11-12T02:43:06.609Z,858.01
2018-11-12T02:44:06.564Z,858.01
2018-11-12T02:45:07.448Z,858.00
2018-11-12T02:46:06.550Z,858.08
2018-11-12T02:47:06.523Z,858.02
2018-11-12T02:48:06.556Z,858.01
2018-11-12T02:49:06.505Z,858.02
2018-11-12T02:50:06.493Z,858.00
2018-11-12T02:51:06.497Z,858.04
2018-11-12T02:52:06.495Z,858.01
2018-11-12T02:53:06.517Z,858.02
2018-11-12T02:54:06.455Z,858.09
2018-11-12T02:55:06.449Z,858.11
2018-11-12T02:56:06.448Z,858.15
2018-11-12T02:57:06.428Z,858.16
2018-11-12T02:58:06.449Z,858.23
2018-11-12T02:59:06.406Z,858.16
2018-11-12T03:00:06.401Z,858.18
2018-11-12T03:01:06.381Z,858.22
2018-11-12T03:02:06.399Z,858.20
2018-11-12T03:03:06.419Z,858.15
2018-11-12T03:04:06.356Z,858.16
2018-11-12T03:05:06.343Z,858.17
2018-11-12T03:06:06.352Z,858.17
2018-11-12T03:07:06.322Z,858.13
2018-11-12T03:08:06.354Z,858.17
2018-11-12T03:09:06.326Z,858.19
2018-11-12T03:10:06.304Z,858.20
2018-11-12T03:11:06.292Z,858.18
2018-11-12T03:12:06.976Z,858.18
2018-11-12T03:13:06.298Z,858.22
2018-11-12T03:14:06.268Z,858.26
2018-11-12T03:15:06.308Z,858.19
2018-11-12T03:16:06.267Z,858.20
2018-11-12T03:17:06.220Z,858.21
2018-11-12T03:18:06.194Z,858.19
2018-11-12T03:19:06.180Z,858.17
2018-11-12T03:20:06.244Z,858.18
2018-11-12T03:21:06.200Z,858.16
2018-11-12T03:22:06.165Z,858.15
2018-11-12T03:23:06.175Z,858.15
2018-11-12T03:24:06.127Z,858.12
2018-11-12T03:25:06.356Z,858.16
2018-11-12T03:26:06.959Z,858.17
2018-11-12T03:27:06.155Z,858.22
2018-11-12T03:28:06.226Z,858.21
2018-11-12T03:29:07.969Z,858.19
2018-11-12T03:30:06.279Z,858.23
2018-11-12T03:31:06.060Z,858.20
2018-11-12T03:32:06.075Z,858.17
2018-11-12T03:33:06.039Z,858.11
2018-11-12T03:34:06.017Z,858.15
2018-11-12T03:35:06.026Z,858.14
2018-11-12T03:36:06.005Z,858.22
2018-11-12T03:37:06.174Z,858.23
2018-11-12T03:38:05.997Z,858.18
2018-11-12T03:39:05.985Z,858.22
2018-11-12T03:40:05.951Z,858.25
2018-11-12T03:41:06.006Z,858.22
2018-11-12T03:42:05.954Z,858.26
2018-11-12T03:43:05.933Z,858.26
2018-11-12T03:44:05.927Z,858.24
2018-11-12T03:45:05.905Z,858.26
2018-11-12T03:46:05.936Z,858.22
2018-11-12T03:47:05.874Z,858.26
2018-11-12T03:48:05.862Z,858.23
2018-11-12T03:49:05.868Z,858.24
2018-11-12T03:50:05.847Z,858.23
2018-11-12T03:51:05.896Z,858.24
2018-11-12T03:52:05.960Z,858.26
2018-11-12T03:53:05.999Z,858.31
2018-11-12T03:54:05.801Z,858.30
2018-11-12T03:55:05.792Z,858.30
2018-11-12T03:56:05.830Z,858.31
2018-11-12T03:57:05.778Z,858.29
2018-11-12T03:58:05.772Z,858.31
2018-11-12T03:59:05.778Z,858.30
2018-11-12T04:00:06.460Z,858.32
2018-11-12T04:01:05.761Z,858.34
2018-11-12T04:02:05.737Z,858.35
2018-11-12T04:03:05.731Z,858.37
2018-11-12T04:04:05.872Z,858.30
2018-11-12T04:05:05.684Z,858.38
2018-11-12T04:06:05.736Z,858.32
2018-11-12T04:07:05.680Z,858.32
2018-11-12T04:08:05.688Z,858.35
2018-11-12T04:09:05.642Z,858.36
2018-11-12T04:10:05.648Z,858.38
2018-11-12T04:11:06.447Z,858.33
2018-11-12T04:12:05.618Z,858.34
2018-11-12T04:13:05.623Z,858.35
2018-11-12T04:14:05.619Z,858.34
2018-11-12T04:15:05.576Z,858.38
2018-11-12T04:16:05.577Z,858.36
2018-11-12T04:17:05.575Z,858.35
2018-11-12T04:18:05.560Z,858.32
2018-11-12T04:19:05.533Z,858.37
2018-11-12T04:20:28.033Z,858.31
2018-11-12T04:21:18.138Z,858.33
2018-11-12T04:22:13.119Z,858.39
2018-11-12T04:23:27.600Z,858.40
2018-11-12T04:24:14.593Z,858.36
2018-11-12T04:25:14.689Z,858.35
2018-11-12T04:26:27.133Z,858.45
2018-11-12T04:28:21.611Z,858.45
2018-11-12T04:30:16.083Z,858.44
2018-11-12T04:31:16.103Z,858.41
2018-11-12T04:32:16.177Z,858.35
2018-11-12T04:33:16.824Z,858.43
2018-11-12T04:34:16.220Z,858.47
2018-11-12T04:35:16.017Z,858.47
2018-11-12T04:36:16.039Z,858.50
2018-11-12T04:37:15.998Z,858.48
2018-11-12T04:38:15.978Z,858.43
2018-11-12T04:39:16.882Z,858.45
2018-11-12T04:40:19.326Z,858.40
2018-11-12T04:41:15.938Z,858.40
2018-11-12T04:42:15.948Z,858.44
2018-11-12T04:43:15.973Z,858.43
2018-11-12T04:44:15.895Z,858.42
2018-11-12T04:45:15.875Z,858.44
2018-11-12T04:46:15.893Z,858.41
2018-11-12T04:47:15.919Z,858.45
2018-11-12T04:48:15.881Z,858.41
2018-11-12T04:49:16.733Z,858.40
2018-11-12T04:50:15.826Z,858.45
2018-11-12T04:51:15.877Z,858.44
2018-11-12T04:52:15.822Z,858.41
2018-11-12T04:53:15.836Z,858.40
2018-11-12T04:54:15.840Z,858.45
2018-11-12T04:55:15.807Z,858.42
2018-11-12T04:56:16.727Z,858.45
2018-11-12T04:57:15.740Z,858.47
2018-11-12T04:58:15.771Z,858.44
2018-11-12T04:59:15.806Z,858.45
2018-11-12T05:00:15.722Z,858.49
2018-11-12T05:01:15.770Z,858.52
2018-11-12T05:02:15.711Z,858.56
2018-11-12T05:03:15.698Z,858.60
2018-11-12T05:04:15.703Z,858.56
2018-11-12T05:05:15.673Z,858.64
2018-11-12T05:06:15.702Z,858.65
2018-11-12T05:07:15.686Z,858.66
2018-11-12T05:08:15.623Z,858.71
2018-11-12T05:09:15.657Z,858.69
2018-11-12T05:10:15.642Z,858.71
2018-11-12T05:11:15.641Z,858.69
2018-11-12T05:12:15.627Z,858.71
2018-11-12T05:13:15.584Z,858.71
2018-11-12T05:14:23.718Z,858.74
2018-11-12T05:15:16.587Z,858.77
2018-11-12T05:16:15.578Z,858.71
2018-11-12T05:17:15.547Z,858.72
2018-11-12T05:18:15.532Z,858.67
2018-11-12T05:19:15.519Z,858.72
2018-11-12T05:20:15.670Z,858.70
2018-11-12T05:21:15.569Z,858.69
2018-11-12T05:22:15.501Z,858.69
2018-11-12T05:23:15.510Z,858.66
2018-11-12T05:24:15.515Z,858.66
2018-11-12T05:25:15.555Z,858.65
2018-11-12T05:26:15.489Z,858.68
2018-11-12T05:27:15.449Z,858.68
2018-11-12T05:28:15.425Z,858.71
2018-11-12T05:29:15.470Z,858.69
2018-11-12T05:30:15.408Z,858.72
2018-11-12T05:31:15.443Z,858.69
2018-11-12T05:32:15.394Z,858.69
2018-11-12T05:33:15.455Z,858.72
2018-11-12T05:34:15.411Z,858.74
2018-11-12T05:35:15.347Z,858.69
2018-11-12T05:36:15.383Z,858.67
2018-11-12T05:37:15.357Z,858.67
2018-11-12T05:38:15.365Z,858.69
2018-11-12T05:39:16.247Z,858.73
2018-11-12T05:40:15.295Z,858.77
2018-11-12T05:41:15.258Z,858.78
2018-11-12T05:42:15.268Z,858.79
2018-11-12T05:43:15.300Z,858.78
2018-11-12T05:44:15.242Z,858.78
2018-11-12T05:45:15.221Z,858.80
2018-11-12T05:46:15.212Z,858.82
2018-11-12T05:47:15.200Z,858.82
2018-11-12T05:48:15.213Z,858.85
2018-11-12T05:49:15.197Z,858.89
2018-11-12T05:50:15.185Z,858.90
2018-11-12T05:51:15.197Z,858.93
2018-11-12T05:52:15.152Z,858.92
2018-11-12T05:53:15.217Z,858.96
2018-11-12T05:54:15.267Z,858.92
2018-11-12T05:55:15.118Z,858.95
2018-11-12T05:56:15.110Z,858.97
2018-11-12T05:57:15.111Z,858.97
2018-11-12T05:58:15.139Z,858.97
2018-11-12T05:59:15.114Z,858.98
2018-11-12T06:00:15.077Z,858.97
2018-11-12T06:01:15.068Z,858.97
2018-11-12T06:02:15.732Z,859.03
2018-11-12T06:03:15.050Z,859.02
2018-11-12T06:04:15.027Z,859.02
2018-11-12T06:05:15.026Z,859.07
2018-11-12T06:06:14.989Z,859.08
2018-11-12T06:07:15.173Z,859.09
2018-11-12T06:08:14.975Z,859.12
2018-11-12T06:09:14.961Z,859.09
2018-11-12T06:10:15.029Z,859.08
2018-11-12T06:11:14.938Z,859.11
2018-11-12T06:12:14.951Z,859.13
2018-11-12T06:13:14.910Z,859.18
2018-11-12T06:14:15.113Z,859.18
2018-11-12T06:15:14.945Z,859.16
2018-11-12T06:16:15.280Z,859.15
2018-11-12T06:17:14.926Z,859.18
2018-11-12T06:18:14.885Z,859.18
2018-11-12T06:19:14.847Z,859.16
2018-11-12T06:20:15.775Z,859.22
2018-11-12T06:21:15.032Z,859.20
2018-11-12T06:22:14.856Z,859.24
2018-11-12T06:23:14.841Z,859.19
2018-11-12T06:24:14.794Z,859.24
2018-11-12T06:25:14.795Z,859.23
2018-11-12T06:26:14.795Z,859.22
2018-11-12T06:27:14.801Z,859.20
2018-11-12T06:28:14.780Z,859.19
2018-11-12T06:29:14.766Z,859.15
2018-11-12T06:30:14.791Z,859.17
2018-11-12T06:31:14.745Z,859.18
2018-11-12T06:32:15.266Z,859.16
2018-11-12T06:33:14.738Z,859.14
2018-11-12T06:34:15.257Z,859.18
2018-11-12T06:35:14.692Z,859.19
2018-11-12T06:36:14.701Z,859.25
2018-11-12T06:37:14.681Z,859.18
2018-11-12T06:38:14.702Z,859.19
2018-11-12T06:39:14.641Z,859.20
2018-11-12T06:40:14.660Z,859.20
2018-11-12T06:41:15.243Z,859.20
2018-11-12T06:42:14.643Z,859.18
2018-11-12T06:43:14.772Z,859.17
2018-11-12T06:44:14.660Z,859.14
2018-11-12T06:45:14.580Z,859.13
2018-11-12T06:46:14.556Z,859.16
2018-11-12T06:47:14.576Z,859.20
2018-11-12T06:48:14.549Z,859.21
2018-11-12T06:49:14.584Z,859.16
2018-11-12T06:50:14.536Z,859.18
2018-11-12T06:51:14.502Z,859.18
2018-11-12T06:52:14.492Z,859.22
2018-11-12T06:53:14.785Z,859.23
2018-11-12T06:54:14.518Z,859.22
2018-11-12T06:55:14.517Z,859.23
2018-11-12T06:56:14.476Z,859.22
2018-11-12T06:57:14.461Z,859.24
2018-11-12T06:58:14.453Z,859.25
2018-11-12T06:59:14.461Z,859.24
2018-11-12T07:00:14.430Z,859.30
2018-11-12T07:01:14.410Z,859.32
2018-11-12T07:02:14.402Z,859.34
2018-11-12T07:03:14.382Z,859.37
2018-11-12T07:04:14.402Z,859.36
2018-11-12T07:05:14.388Z,859.39
2018-11-12T07:06:14.379Z,859.36
2018-11-12T07:07:14.379Z,859.34
2018-11-12T07:08:14.350Z,859.38
2018-11-12T07:09:14.318Z,859.37
2018-11-12T07:10:14.305Z,859.37
2018-11-12T07:11:14.297Z,859.39
2018-11-12T07:12:14.340Z,859.40
2018-11-12T07:13:14.303Z,859.36
2018-11-12T07:14:14.260Z,859.42
2018-11-12T07:15:14.279Z,859.39
2018-11-12T07:16:14.367Z,859.45
2018-11-12T07:17:15.268Z,859.45
2018-11-12T07:18:14.233Z,859.50
2018-11-12T07:19:14.215Z,859.50
2018-11-12T07:20:14.197Z,859.54
2018-11-12T07:21:14.189Z,859.53
2018-11-12T07:22:14.314Z,859.57
2018-11-12T07:23:14.223Z,859.56
2018-11-12T07:24:14.171Z,859.62
2018-11-12T07:25:14.192Z,859.59
2018-11-12T07:26:14.147Z,859.54
2018-11-12T07:27:14.134Z,859.63
2018-11-12T07:28:14.156Z,859.62
2018-11-12T07:29:14.122Z,859.63
2018-11-12T07:30:14.135Z,859.60
2018-11-12T07:31:14.141Z,859.61
2018-11-12T07:32:14.078Z,859.63
2018-11-12T07:33:14.133Z,859.62
2018-11-12T07:34:14.068Z,859.62
2018-11-12T07:35:14.056Z,859.68
2018-11-12T07:36:14.061Z,859.72
2018-11-12T07:37:14.037Z,859.69
2018-11-12T07:38:14.072Z,859.64
2018-11-12T07:39:14.047Z,859.65
2018-11-12T07:40:14.004Z,859.63
2018-11-12T07:41:14.004Z,859.58
2018-11-12T07:42:14.097Z,859.62
2018-11-12T07:43:14.002Z,859.65
2018-11-12T07:44:13.949Z,859.63
2018-11-12T07:45:13.937Z,859.61
2018-11-12T07:46:13.934Z,859.60
2018-11-12T07:47:13.920Z,859.57
2018-11-12T07:48:13.970Z,859.56
2018-11-12T07:49:13.901Z,859.57
2018-11-12T07:50:13.888Z,859.56
2018-11-12T07:51:13.881Z,859.56
2018-11-12T07:52:13.858Z,859.55
2018-11-12T07:53:13.901Z,859.56
2018-11-12T07:54:13.870Z,859.59
2018-11-12T07:55:13.836Z,859.54
2018-11-12T07:56:13.845Z,859.55
2018-11-12T07:57:13.793Z,859.51
2018-11-12T07:58:13.802Z,859.50
2018-11-12T07:59:13.776Z,859.50
2018-11-12T08:00:13.761Z,859.46
2018-11-12T08:01:13.784Z,859.54
2018-11-12T08:02:13.761Z,859.55
2018-11-12T08:03:13.886Z,859.59
2018-11-12T08:04:13.722Z,859.55
2018-11-12T08:05:13.728Z,859.57
2018-11-12T08:06:13.801Z,859.55
2018-11-12T08:07:13.768Z,859.52
2018-11-12T08:08:13.695Z,859.59
2018-11-12T08:09:13.835Z,859.59
2018-11-12T08:10:13.693Z,859.57
2018-11-12T08:11:13.700Z,859.48
2018-11-12T08:12:13.691Z,859.55
2018-11-12T08:13:13.685Z,859.58
2018-11-12T08:14:13.733Z,859.59
2018-11-12T08:15:13.650Z,859.58
2018-11-12T08:16:13.613Z,859.54
2018-11-12T08:17:13.611Z,859.52
2018-11-12T08:18:13.574Z,859.51
2018-11-12T08:19:13.619Z,859.52
2018-11-12T08:20:13.574Z,859.45
2018-11-12T08:21:13.567Z,859.44
2018-11-12T08:22:13.550Z,859.51
2018-11-12T08:23:13.520Z,859.49
2018-11-12T08:24:13.694Z,859.47
2018-11-12T08:25:13.516Z,859.44
2018-11-12T08:26:13.480Z,859.47
2018-11-12T08:27:13.550Z,859.46
2018-11-12T08:28:13.481Z,859.42
2018-11-12T08:29:13.464Z,859.49
2018-11-12T08:30:13.563Z,859.52
2018-11-12T08:31:14.163Z,859.56
2018-11-12T08:32:13.466Z,859.57
2018-11-12T08:33:13.508Z,859.54
2018-11-12T08:34:13.417Z,859.52
2018-11-12T08:35:13.394Z,859.50
2018-11-12T08:36:13.479Z,859.51
2018-11-12T08:37:13.407Z,859.52
2018-11-12T08:38:13.407Z,859.50
2018-11-12T08:39:13.483Z,859.52
2018-11-12T08:40:13.398Z,859.50
2018-11-12T08:41:13.415Z,859.49
2018-11-12T08:42:13.312Z,859.49
2018-11-12T08:43:13.330Z,859.47
2018-11-12T08:44:13.723Z,859.45
2018-11-12T08:45:13.298Z,859.50
2018-11-12T08:46:13.436Z,859.54
2018-11-12T08:47:13.297Z,859.55
2018-11-12T08:48:13.792Z,859.56
2018-11-12T08:49:15.721Z,859.52
2018-11-12T08:50:13.221Z,859.56
2018-11-12T08:51:13.287Z,859.58
2018-11-12T08:52:13.270Z,859.59
2018-11-12T08:53:13.286Z,859.60
2018-11-12T08:54:13.330Z,859.61
2018-11-12T08:55:13.296Z,859.59
2018-11-12T08:56:13.695Z,859.64
2018-11-12T08:57:13.303Z,859.69
2018-11-12T08:58:14.097Z,859.63
2018-11-12T08:59:13.274Z,859.69
2018-11-12T09:00:13.155Z,859.68
2018-11-12T09:01:13.108Z,859.63
2018-11-12T09:02:13.127Z,859.60
2018-11-12T09:03:13.169Z,859.56
2018-11-12T09:04:13.197Z,859.59
2018-11-12T09:05:13.069Z,859.59
2018-11-12T09:06:13.062Z,859.57
2018-11-12T09:07:13.271Z,859.56
2018-11-12T09:08:13.033Z,859.62
2018-11-12T09:09:13.098Z,859.60
2018-11-12T09:10:13.098Z,859.56
2018-11-12T09:11:13.005Z,859.56
2018-11-12T09:12:13.004Z,859.53
2018-11-12T09:13:13.099Z,859.50
2018-11-12T09:14:13.217Z,859.52
2018-11-12T09:15:12.963Z,859.50
2018-11-12T09:16:13.686Z,859.54
2018-11-12T09:17:12.937Z,859.49
2018-11-12T09:18:12.959Z,859.47
2018-11-12T09:19:12.948Z,859.47
2018-11-12T09:20:12.927Z,859.47
2018-11-12T09:21:13.059Z,859.53
2018-11-12T09:22:12.897Z,859.54
2018-11-12T09:23:12.873Z,859.55
2018-11-12T09:24:13.008Z,859.58
2018-11-12T09:25:12.881Z,859.61
2018-11-12T09:26:12.859Z,859.66
2018-11-12T09:27:12.849Z,859.61
2018-11-12T09:28:12.817Z,859.60
2018-11-12T09:29:12.857Z,859.59
2018-11-12T09:30:12.802Z,859.59
2018-11-12T09:31:14.531Z,859.60
2018-11-12T09:32:12.889Z,859.62
2018-11-12T09:33:12.805Z,859.65
2018-11-12T09:34:12.752Z,859.61
2018-11-12T09:35:12.811Z,859.66
2018-11-12T09:36:12.726Z,859.69
2018-11-12T09:37:12.768Z,859.70
2018-11-12T09:38:12.812Z,859.79
2018-11-12T09:39:12.694Z,859.75
2018-11-12T09:40:12.735Z,859.73
2018-11-12T09:41:12.746Z,859.77
2018-11-12T09:42:12.679Z,859.77
2018-11-12T09:43:12.716Z,859.76
2018-11-12T09:44:12.662Z,859.80
2018-11-12T09:45:12.682Z,859.81
2018-11-12T09:46:12.704Z,859.83
2018-11-12T09:47:12.635Z,859.82
2018-11-12T09:48:12.661Z,859.83
2018-11-12T09:49:12.590Z,859.83
2018-11-12T09:50:12.596Z,859.86
2018-11-12T09:51:12.568Z,859.91
2018-11-12T09:52:12.558Z,859.85
2018-11-12T09:53:12.571Z,859.83
2018-11-12T09:54:12.582Z,859.86
2018-11-12T09:55:12.534Z,859.86
2018-11-12T09:56:12.521Z,859.88
2018-11-12T09:57:12.510Z,859.91
2018-11-12T09:58:12.519Z,859.88
2018-11-12T09:59:12.541Z,859.85
2018-11-12T10:00:12.596Z,859.84
2018-11-12T10:01:12.871Z,859.79
2018-11-12T10:02:13.276Z,859.81
2018-11-12T10:03:13.991Z,859.78
2018-11-12T10:04:13.668Z,859.80
2018-11-12T10:05:13.416Z,859.68
2018-11-12T10:06:13.447Z,859.69
2018-11-12T10:07:14.235Z,859.65
2018-11-12T10:08:14.273Z,859.57
2018-11-12T10:09:14.475Z,859.59
2018-11-12T10:10:14.838Z,859.58
2018-11-12T10:11:14.199Z,859.63
2018-11-12T10:12:14.881Z,859.66
2018-11-12T10:13:15.261Z,859.65
2018-11-12T10:14:15.071Z,859.71
2018-11-12T10:15:14.189Z,859.75
2018-11-12T10:16:15.087Z,859.65
2018-11-12T10:17:15.360Z,859.66
2018-11-12T10:19:12.263Z,859.65
2018-11-12T10:20:12.729Z,859.71
2018-11-12T10:21:12.238Z,859.72
2018-11-12T10:22:12.242Z,859.76
2018-11-12T10:23:12.213Z,859.75
2018-11-12T10:24:12.229Z,859.72
2018-11-12T10:25:12.220Z,859.77
2018-11-12T10:26:12.215Z,859.74
2018-11-12T10:27:12.238Z,859.68
2018-11-12T10:28:12.163Z,859.72
2018-11-12T10:29:12.163Z,859.72
2018-11-12T10:30:12.199Z,859.74
2018-11-12T10:31:12.119Z,859.69
2018-11-12T10:32:12.683Z,859.78
2018-11-12T10:33:12.162Z,859.68
2018-11-12T10:34:12.177Z,859.81
2018-11-12T10:35:12.102Z,859.74
2018-11-12T10:36:12.056Z,859.77
2018-11-12T10:37:12.052Z,859.74
2018-11-12T10:38:12.178Z,859.68
2018-11-12T10:39:12.044Z,859.68
2018-11-12T10:40:12.059Z,859.68
2018-11-12T10:41:12.681Z,859.60
2018-11-12T10:42:12.016Z,859.51
2018-11-12T10:43:11.992Z,859.58
2018-11-12T10:44:11.994Z,859.51
2018-11-12T10:45:11.971Z,859.56
2018-11-12T10:46:12.014Z,859.62
2018-11-12T10:47:11.972Z,859.61
2018-11-12T10:48:12.062Z,859.61
2018-11-12T10:49:11.926Z,859.58
2018-11-12T10:50:11.936Z,859.57
2018-11-12T10:51:12.141Z,859.58
2018-11-12T10:52:11.897Z,859.57
2018-11-12T10:53:11.974Z,859.60
2018-11-12T10:54:12.262Z,859.56
2018-11-12T10:55:12.076Z,859.50
2018-11-12T10:56:11.984Z,859.51
2018-11-12T10:57:11.839Z,859.52
2018-11-12T10:58:11.905Z,859.52
2018-11-12T10:59:11.866Z,859.51
2018-11-12T11:00:11.851Z,859.50
2018-11-12T11:01:11.841Z,859.46
2018-11-12T11:02:11.794Z,859.47
2018-11-12T11:03:11.841Z,859.43
2018-11-12T11:04:11.787Z,859.46
2018-11-12T11:05:11.777Z,859.45
2018-11-12T11:06:26.227Z,859.44
2018-11-12T11:07:22.262Z,859.43
2018-11-12T11:08:33.827Z,859.38
2018-11-12T11:10:28.472Z,859.41
2018-11-12T11:11:22.096Z,859.45
2018-11-12T11:12:22.330Z,859.40
2018-11-12T11:13:22.449Z,859.33
2018-11-12T11:14:22.839Z,859.45
2018-11-12T11:15:28.086Z,859.44
2018-11-12T11:16:21.886Z,859.46
2018-11-12T11:17:42.826Z,859.49
2018-11-12T11:18:13.947Z,859.44
2018-11-12T11:19:13.965Z,859.44
2018-11-12T11:20:13.957Z,859.38
2018-11-12T11:21:13.953Z,859.40
2018-11-12T11:22:13.896Z,859.42
2018-11-12T11:23:13.887Z,859.41
2018-11-12T11:24:13.900Z,859.42
2018-11-12T11:25:13.884Z,859.46
2018-11-12T11:26:13.906Z,859.38
2018-11-12T11:27:13.871Z,859.43
2018-11-12T11:28:13.845Z,859.44
2018-11-12T11:29:13.984Z,859.44
2018-11-12T11:30:13.805Z,859.44
2018-11-12T11:31:13.837Z,859.54
2018-11-12T11:32:13.794Z,859.48
2018-11-12T11:33:13.826Z,859.49
2018-11-12T11:34:13.922Z,859.50
2018-11-12T11:35:13.746Z,859.42
2018-11-12T11:36:13.749Z,859.45
2018-11-12T11:37:14.151Z,859.48
2018-11-12T11:38:13.758Z,859.46
2018-11-12T11:39:13.705Z,859.51
2018-11-12T11:40:13.750Z,859.49
2018-11-12T11:41:13.681Z,859.41
2018-11-12T11:42:13.683Z,859.43
2018-11-12T11:43:13.704Z,859.48
2018-11-12T11:44:13.633Z,859.38
2018-11-12T11:45:13.631Z,859.45
2018-11-12T11:46:13.655Z,859.40
2018-11-12T11:47:13.681Z,859.40
2018-11-12T11:48:13.949Z,859.39
2018-11-12T11:49:13.592Z,859.43
2018-11-12T11:50:13.649Z,859.46
2018-11-12T11:51:13.595Z,859.44
2018-11-12T11:52:13.557Z,859.41
2018-11-12T11:53:13.560Z,859.35
2018-11-12T11:54:13.521Z,859.35
2018-11-12T11:55:13.660Z,859.41
2018-11-12T11:56:13.564Z,859.36
2018-11-12T11:57:13.622Z,859.32
2018-11-12T11:58:13.500Z,859.38
2018-11-12T11:59:13.488Z,859.37
2018-11-12T12:00:13.469Z,859.38
2018-11-12T12:01:13.496Z,859.37
2018-11-12T12:02:13.521Z,859.36
2018-11-12T12:03:13.478Z,859.35
2018-11-12T12:04:13.439Z,859.38
2018-11-12T12:05:14.038Z,859.32
2018-11-12T12:06:13.395Z,859.38
2018-11-12T12:07:13.541Z,859.38
2018-11-12T12:08:13.415Z,859.44
2018-11-12T12:09:13.636Z,859.34
2018-11-12T12:10:13.364Z,859.37
2018-11-12T12:11:14.003Z,859.32
2018-11-12T12:12:14.047Z,859.27
2018-11-12T12:13:13.389Z,859.38
2018-11-12T12:14:13.379Z,859.34
2018-11-12T12:15:13.323Z,859.39
2018-11-12T12:16:13.306Z,859.33
2018-11-12T12:17:13.301Z,859.28
2018-11-12T12:18:13.310Z,859.27
2018-11-12T12:19:13.326Z,859.29
2018-11-12T12:20:15.079Z,859.37
2018-11-12T12:21:13.264Z,859.32
2018-11-12T12:22:13.231Z,859.38
2018-11-12T12:23:13.273Z,859.30
2018-11-12T12:24:13.220Z,859.31
2018-11-12T12:25:13.302Z,859.26
2018-11-12T12:26:13.229Z,859.27
2018-11-12T12:27:14.210Z,859.34
2018-11-12T12:28:13.190Z,859.28
2018-11-12T12:29:13.182Z,859.35
2018-11-12T12:30:13.151Z,859.28
2018-11-12T12:31:13.191Z,859.25
2018-11-12T12:32:13.138Z,859.26